Time;durP1;ratioP1;P1;durP2;ratioP2;P2;SDS_P1;SDS_P2;PMS_P1;PMS_P2;Temp;Humidity;BMP_temperature;BMP_pressure;BME280_temperature;BME280_humidity;BME280_pressure;Samples;Min_cycle;Max_cycle;Signal;HPM_P1;HPM_P2
2022/08/14 00:01:09;;;;;;;13.65;11.20;;;19.00;81.60;;;;;;4991539;28;20025;-72
2022/08/14 00:03:35;;;;;;;12.38;11.18;;;19.00;81.50;;;;;;4991769;28;20026;-73
2022/08/14 00:06:02;;;;;;;15.13;12.23;;;19.00;81.50;;;;;;4991730;28;20030;-73
2022/08/14 00:08:29;;;;;;;12.95;11.65;;;19.00;81.60;;;;;;5009667;28;20030;-73
2022/08/14 00:10:54;;;;;;;16.02;11.50;;;18.90;81.50;;;;;;4995439;28;20487;-73
2022/08/14 00:13:23;;;;;;;12.45;10.90;;;18.90;81.60;;;;;;4995919;28;20022;-72
2022/08/14 00:15:50;;;;;;;14.00;11.43;;;18.90;81.70;;;;;;4995374;28;20088;-73
2022/08/14 00:18:20;;;;;;;13.50;12.13;;;18.80;81.80;;;;;;4994712;28;20101;-72
2022/08/14 00:20:46;;;;;;;13.18;11.88;;;18.80;82.00;;;;;;4993866;28;20414;-72
2022/08/14 00:23:13;;;;;;;13.88;12.40;;;18.70;82.20;;;;;;4995202;28;20475;-72
2022/08/14 00:25:40;;;;;;;13.80;12.35;;;18.80;82.50;;;;;;4995213;28;20373;-72
2022/08/14 00:28:09;;;;;;;13.43;12.00;;;18.80;82.50;;;;;;4994353;28;20101;-71
2022/08/14 00:30:35;;;;;;;13.98;11.77;;;18.70;82.50;;;;;;4993849;28;20081;-73
2022/08/14 00:33:01;;;;;;;13.35;12.02;;;18.70;82.50;;;;;;4995288;28;20487;-73
2022/08/14 00:35:27;;;;;;;13.07;11.68;;;18.70;82.80;;;;;;4994504;28;20058;-73
2022/08/14 00:37:53;;;;;;;13.43;12.00;;;18.60;82.90;;;;;;4994697;28;20165;-73
2022/08/14 00:40:19;;;;;;;11.80;10.60;;;18.60;83.00;;;;;;4994778;28;20030;-72
2022/08/14 00:42:46;;;;;;;13.75;12.02;;;18.60;83.00;;;;;;4995344;28;20030;-73
2022/08/14 00:45:14;;;;;;;12.73;10.95;;;18.50;83.10;;;;;;4994893;28;20465;-73
2022/08/14 00:47:41;;;;;;;11.68;10.55;;;18.50;83.20;;;;;;4994040;28;20465;-72
2022/08/14 00:50:10;;;;;;;12.27;11.07;;;18.50;83.20;;;;;;4994731;28;20018;-72
2022/08/14 00:52:36;;;;;;;12.52;11.38;;;18.50;83.10;;;;;;4994496;28;20396;-72
2022/08/14 00:55:05;;;;;;;12.15;10.95;;;18.40;83.20;;;;;;4994587;28;20041;-72
2022/08/14 00:57:33;;;;;;;12.95;11.52;;;18.50;83.10;;;;;;4993920;28;20498;-72
2022/08/14 00:59:59;;;;;;;13.93;10.73;;;18.50;83.10;;;;;;4994552;28;20041;-71
2022/08/14 01:02:28;;;;;;;11.13;10.13;;;18.50;83.10;;;;;;4994412;28;20031;-71
2022/08/14 01:04:58;;;;;;;15.20;12.15;;;18.50;83.20;;;;;;4994366;28;20040;-72
2022/08/14 01:07:27;;;;;;;17.67;12.93;;;18.40;83.30;;;;;;4993499;28;20513;-72
2022/08/14 01:10:00;;;;;;;15.70;11.77;;;18.40;83.50;;;;;;4994588;28;20028;-72
2022/08/14 01:12:27;;;;;;;13.38;12.07;;;18.30;83.50;;;;;;4994378;28;20037;-73
2022/08/14 01:14:54;;;;;;;19.23;12.50;;;18.30;83.80;;;;;;4994350;28;20103;-73
2022/08/14 01:17:23;;;;;;;15.93;11.75;;;18.20;84.00;;;;;;4993119;28;20109;-72
2022/08/14 01:22:35;;;;;;;12.95;11.65;;;18.20;84.20;;;;;;4994856;28;20114;-73
2022/08/14 01:25:01;;;;;;;13.48;12.18;;;18.20;84.00;;;;;;4994355;28;20023;-72
2022/08/14 01:27:27;;;;;;;14.07;12.45;;;18.20;83.70;;;;;;4993520;28;20018;-72
2022/08/14 01:29:55;;;;;;;13.38;11.98;;;18.20;83.60;;;;;;4994633;28;20022;-72
2022/08/14 01:32:21;;;;;;;14.00;12.38;;;18.20;83.70;;;;;;4993901;28;20022;-73
2022/08/14 01:34:50;;;;;;;13.80;12.38;;;18.20;83.70;;;;;;4994055;28;20034;-73
2022/08/14 01:39:42;;;;;;;13.93;12.45;;;18.10;83.60;;;;;;5030703;22;20444;-75
2022/08/14 01:42:07;;;;;;;13.32;11.93;;;18.00;83.80;;;;;;4993848;28;20028;-75
2022/08/14 01:44:35;;;;;;;15.00;13.00;;;18.00;83.90;;;;;;4993948;28;20488;-75
2022/08/14 01:47:11;;;;;;;14.38;12.85;;;17.90;84.30;;;;;;4993840;28;20080;-75
2022/08/14 01:49:37;;;;;;;13.73;12.40;;;17.90;84.60;;;;;;4993933;28;20035;-75
2022/08/14 01:52:02;;;;;;;14.23;12.77;;;17.90;84.60;;;;;;4993716;28;20031;-75
2022/08/14 01:54:28;;;;;;;377.08;279.08;;;17.90;84.40;;;;;;4993721;28;20037;-73
2022/08/14 01:56:55;;;;;;;79.70;54.90;;;17.90;84.30;;;;;;4992414;28;20026;-73
2022/08/14 01:59:31;;;;;;;21.27;16.42;;;18.00;84.00;;;;;;4993535;28;20369;-74
2022/08/14 02:02:02;;;;;;;15.75;13.25;;;18.00;83.80;;;;;;4992364;28;20031;-73
2022/08/14 02:04:33;;;;;;;15.43;13.63;;;18.00;83.60;;;;;;4993546;28;20443;-72
2022/08/14 02:07:01;;;;;;;13.82;12.35;;;18.00;83.60;;;;;;4993542;28;20499;-72
2022/08/14 02:09:29;;;;;;;13.90;12.50;;;18.00;83.50;;;;;;4993380;28;20026;-73
2022/08/14 02:11:55;;;;;;;14.73;13.32;;;18.00;83.50;;;;;;4993581;28;20404;-73
2022/08/14 02:14:22;;;;;;;13.05;11.75;;;18.00;83.60;;;;;;4993481;28;20026;-74
2022/08/14 02:16:52;;;;;;;16.42;14.73;;;18.00;83.60;;;;;;4993427;28;20026;-74
2022/08/14 02:19:24;;;;;;;16.63;13.15;;;18.00;83.30;;;;;;4991716;28;20512;-73
2022/08/14 02:21:53;;;;;;;14.77;13.32;;;18.00;83.20;;;;;;4993298;28;20038;-73
2022/08/14 02:24:22;;;;;;;16.80;15.02;;;18.00;83.30;;;;;;4993303;28;20027;-73
2022/08/14 02:26:49;;;;;;;18.35;16.00;;;18.00;83.40;;;;;;4991959;28;20105;-73
2022/08/14 02:29:21;;;;;;;14.43;12.93;;;18.00;83.40;;;;;;4992168;28;20026;-73
2022/08/14 02:31:51;;;;;;;17.08;15.23;;;18.00;83.60;;;;;;4993244;28;20370;-73
2022/08/14 02:34:28;;;;;;;18.05;16.15;;;17.90;83.70;;;;;;4993405;28;20428;-73
2022/08/14 02:37:01;;;;;;;16.05;14.25;;;17.80;84.00;;;;;;4993047;28;20014;-73
2022/08/14 02:39:30;;;;;;;15.60;13.45;;;17.80;84.10;;;;;;4992774;28;20113;-71
2022/08/14 02:41:57;;;;;;;16.77;14.13;;;17.70;84.20;;;;;;4993071;28;20033;-73
2022/08/14 02:44:23;;;;;;;16.23;14.63;;;17.70;84.30;;;;;;4992797;28;20022;-74
2022/08/14 02:46:51;;;;;;;16.90;15.18;;;17.60;84.50;;;;;;4992980;28;20101;-72
2022/08/14 02:49:17;;;;;;;17.88;14.77;;;17.60;84.80;;;;;;4991274;28;20072;-74
2022/08/14 02:51:48;;;;;;;15.20;13.70;;;17.60;85.10;;;;;;4992676;28;20022;-74
2022/08/14 02:54:13;;;;;;;14.87;13.33;;;17.50;85.10;;;;;;4992832;28;20101;-75
2022/08/14 02:56:39;;;;;;;14.57;13.18;;;17.50;85.00;;;;;;4992552;28;20436;-75
2022/08/14 02:59:08;;;;;;;14.25;12.75;;;17.50;84.90;;;;;;4992776;28;20049;-75
2022/08/14 03:01:34;;;;;;;13.45;12.15;;;17.50;85.00;;;;;;4992566;28;20030;-75
2022/08/14 03:04:00;;;;;;;15.32;13.82;;;17.50;85.20;;;;;;4992514;28;20101;-74
2022/08/14 03:06:27;;;;;;;15.75;14.23;;;17.50;85.30;;;;;;4992529;28;20066;-73
2022/08/14 03:08:53;;;;;;;19.30;16.02;;;17.50;85.70;;;;;;4992173;28;20022;-73
2022/08/14 03:11:20;;;;;;;22.48;20.17;;;17.50;85.60;;;;;;4992332;28;20026;-74
2022/08/14 03:13:50;;;;;;;22.58;20.27;;;17.50;85.70;;;;;;4992590;28;20248;-74
2022/08/14 03:16:22;;;;;;;26.45;23.75;;;17.50;85.70;;;;;;4992307;28;20038;-74
2022/08/14 03:18:52;;;;;;;24.67;21.60;;;17.50;85.80;;;;;;4992152;28;20030;-73
2022/08/14 03:21:19;;;;;;;27.80;24.83;;;;;;;;;;4991417;28;20433;-73
2022/08/14 03:23:46;;;;;;;26.70;23.92;;;;;;;;;;4992272;28;20467;-75
2022/08/14 03:26:14;;;;;;;27.77;24.00;;;;;;;;;;4992134;28;20022;-75
2022/08/14 03:28:42;;;;;;;24.77;22.15;;;;;;;;;;4992022;28;20101;-74
2022/08/14 03:31:08;;;;;;;24.17;21.65;;;;;;;;;;4992719;28;20061;-74
2022/08/14 03:33:39;;;;;;;24.13;21.63;;;;;;;;;;4990934;28;20053;-75
2022/08/14 03:36:11;;;;;;;23.55;21.15;;;;;;;;;;4992179;28;20026;-75
2022/08/14 03:38:41;;;;;;;23.35;20.88;;;;;;;;;;4991913;28;20039;-75
2022/08/14 03:41:15;;;;;;;22.70;20.27;;;17.30;85.60;;;;;;4993850;28;20026;-74
2022/08/14 03:43:45;;;;;;;21.15;18.73;;;17.30;85.50;;;;;;4995000;28;20364;-73
2022/08/14 03:46:12;;;;;;;21.38;18.02;;;17.30;85.60;;;;;;4996344;28;20664;-73
2022/08/14 03:48:39;;;;;;;21.13;18.33;;;17.30;85.60;;;;;;4995834;28;20027;-74
2022/08/14 03:51:07;;;;;;;21.58;19.45;;;17.30;85.60;;;;;;4996538;28;20027;-73
2022/08/14 03:53:37;;;;;;;22.30;20.02;;;17.30;85.60;;;;;;4996136;28;20384;-73
2022/08/14 03:56:04;;;;;;;21.38;17.48;;;17.30;85.60;;;;;;4995876;28;20029;-74
2022/08/14 03:58:31;;;;;;;22.73;20.08;;;17.30;85.50;;;;;;4995438;28;20034;-74
2022/08/14 04:00:57;;;;;;;22.13;19.83;;;17.40;85.50;;;;;;4995873;28;20026;-73
2022/08/14 04:03:25;;;;;;;22.98;20.52;;;17.40;85.20;;;;;;4995743;28;20038;-73
2022/08/14 04:05:51;;;;;;;23.67;20.63;;;17.50;85.00;;;;;;4995824;28;20250;-76
2022/08/14 04:08:17;;;;;;;20.40;18.08;;;17.50;85.00;;;;;;4995544;28;20373;-74
2022/08/14 04:10:46;;;;;;;22.05;18.95;;;17.60;84.90;;;;;;4995715;28;20019;-74
2022/08/14 04:13:17;;;;;;;20.38;17.73;;;17.60;84.60;;;;;;4996087;28;20027;-75
2022/08/14 04:15:46;;;;;;;20.10;17.90;;;17.70;84.10;;;;;;4995660;28;20022;-74
2022/08/14 04:18:12;;;;;;;18.10;16.25;;;17.80;84.10;;;;;;4994021;28;20041;-75
2022/08/14 04:20:40;;;;;;;18.10;16.25;;;18.00;83.70;;;;;;4995768;28;20381;-74
2022/08/14 04:23:08;;;;;;;18.30;16.45;;;18.10;82.90;;;;;;4995473;28;20026;-74
2022/08/14 04:25:35;;;;;;;18.50;15.90;;;18.30;82.30;;;;;;4994047;28;20027;-75
2022/08/14 04:28:02;;;;;;;15.80;14.10;;;18.60;81.90;;;;;;4995116;28;20030;-73
2022/08/14 04:30:29;;;;;;;14.30;12.90;;;19.10;80.50;;;;;;4995272;28;20383;-75
2022/08/14 04:32:56;;;;;;;15.75;12.55;;;20.00;77.70;;;;;;4995342;28;20027;-76
2022/08/14 04:35:22;;;;;;;13.43;12.02;;;20.90;74.00;;;;;;4995539;28;20077;-75
2022/08/14 04:43:35;;;;;;;11.35;10.10;;;23.40;63.90;;;;;;4995341;28;20040;-75
2022/08/14 04:46:07;;;;;;;11.13;9.90;;;24.00;62.00;;;;;;4995034;28;20030;-74
2022/08/14 04:48:33;;;;;;;11.73;10.50;;;24.60;60.10;;;;;;4994843;28;20029;-75
2022/08/14 04:51:00;;;;;;;11.27;9.98;;;25.00;57.60;;;;;;4995079;28;20106;-75
2022/08/14 04:53:27;;;;;;;11.43;10.27;;;25.30;57.30;;;;;;4994934;28;20022;-75
2022/08/14 04:55:54;;;;;;;10.93;9.82;;;25.80;55.10;;;;;;4994988;28;20554;-75
2022/08/14 04:58:25;;;;;;;10.90;9.77;;;25.80;54.50;;;;;;4994277;28;20034;-75
2022/08/14 05:00:52;;;;;;;11.10;10.00;;;26.50;53.00;;;;;;4995057;28;20103;-76
2022/08/14 05:03:20;;;;;;;9.80;8.70;;;27.00;51.20;;;;;;4994793;28;20545;-75
2022/08/14 05:05:50;;;;;;;10.77;9.15;;;27.40;50.50;;;;;;4994277;28;20077;-75
2022/08/14 05:08:16;;;;;;;9.80;8.37;;;27.70;49.20;;;;;;4994300;28;20050;-76
2022/08/14 05:10:51;;;;;;;9.63;8.73;;;28.10;48.50;;;;;;4994791;28;20523;-74
2022/08/14 05:13:22;;;;;;;9.38;8.50;;;28.20;47.60;;;;;;4994843;28;20022;-75
2022/08/14 05:15:51;;;;;;;;;;;28.50;47.60;;;;;;4995308;28;20030;-78
2022/08/14 05:18:19;;;;;;;10.25;9.07;;;28.80;46.80;;;;;;4994498;28;20396;-77
2022/08/14 05:20:49;;;;;;;9.23;8.32;;;29.20;46.00;;;;;;5005344;28;20029;-78
2022/08/14 05:23:17;;;;;;;9.52;8.45;;;29.60;44.60;;;;;;5013040;28;20026;-78
2022/08/14 05:25:46;;;;;;;9.63;8.63;;;28.90;46.30;;;;;;5014227;28;20030;-78
2022/08/14 05:28:24;;;;;;;10.25;8.85;;;29.30;46.10;;;;;;5014092;28;20037;-78
2022/08/14 05:30:52;;;;;;;9.30;7.60;;;29.90;44.70;;;;;;5014027;28;20160;-79
2022/08/14 05:33:19;;;;;;;10.20;8.98;;;30.80;43.10;;;;;;5012581;28;20029;-78
2022/08/14 05:35:47;;;;;;;11.27;8.35;;;31.20;41.40;;;;;;5013996;28;20036;-78
2022/08/14 05:38:16;;;;;;;8.93;7.97;;;31.00;42.00;;;;;;5013662;28;20042;-77
2022/08/14 05:40:46;;;;;;;8.93;8.05;;;31.90;40.50;;;;;;5011258;28;20029;-78
2022/08/14 05:43:12;;;;;;;13.15;9.13;;;32.30;39.70;;;;;;5012478;28;20110;-77
2022/08/14 05:45:39;;;;;;;9.60;8.00;;;32.00;39.60;;;;;;5012660;28;20026;-78
2022/08/14 05:48:06;;;;;;;8.50;7.55;;;32.20;39.90;;;;;;5012596;28;20388;-78
2022/08/14 05:50:32;;;;;;;9.45;8.45;;;32.40;39.40;;;;;;5013177;28;20425;-77
2022/08/14 05:52:58;;;;;;;11.25;8.18;;;31.50;40.40;;;;;;5011930;28;20028;-79
2022/08/14 05:55:24;;;;;;;9.82;8.73;;;31.00;41.90;;;;;;5012521;28;20420;-77
2022/08/14 05:57:54;;;;;;;9.40;7.72;;;32.10;39.90;;;;;;5013364;28;20032;-77
2022/08/14 06:00:23;;;;;;;9.50;8.43;;;32.80;38.80;;;;;;5013557;28;20504;-77
2022/08/14 06:02:48;;;;;;;10.95;9.85;;;32.80;38.50;;;;;;5013453;28;20152;-78
2022/08/14 06:05:14;;;;;;;9.48;8.57;;;32.00;39.70;;;;;;5012241;28;20042;-77
2022/08/14 06:07:40;;;;;;;10.18;8.93;;;31.50;41.20;;;;;;5013178;28;20152;-76
2022/08/14 06:10:08;;;;;;;11.70;9.10;;;31.50;41.20;;;;;;5012208;28;20549;-74
2022/08/14 06:12:34;;;;;;;11.65;10.57;;;31.90;40.80;;;;;;5011781;28;20030;-75
2022/08/14 06:15:04;;;;;;;8.27;7.47;;;31.00;41.60;;;;;;5013142;28;20033;-77
2022/08/14 06:17:30;;;;;;;10.20;9.23;;;31.50;41.40;;;;;;5012822;28;20034;-77
2022/08/14 06:19:56;;;;;;;9.85;8.85;;;31.40;41.20;;;;;;5013101;28;20400;-77
2022/08/14 06:22:21;;;;;;;11.13;10.10;;;31.00;42.00;;;;;;5012951;28;20057;-78
2022/08/14 06:24:47;;;;;;;11.05;9.95;;;30.50;43.10;;;;;;5012633;28;20034;-77
2022/08/14 06:27:13;;;;;;;10.85;9.85;;;29.80;45.20;;;;;;5012447;28;20018;-77
2022/08/14 06:29:38;;;;;;;9.57;8.65;;;30.30;44.20;;;;;;5012811;28;20431;-78
2022/08/14 06:32:04;;;;;;;9.98;9.07;;;31.40;42.50;;;;;;5012942;28;20484;-78
2022/08/14 06:34:31;;;;;;;9.68;8.68;;;32.00;41.00;;;;;;5012859;28;20038;-78
2022/08/14 06:36:56;;;;;;;12.32;9.75;;;32.20;40.60;;;;;;5012714;28;20435;-77
2022/08/14 06:39:24;;;;;;;9.05;7.95;;;33.00;39.60;;;;;;5012318;28;20033;-78
2022/08/14 06:41:49;;;;;;;10.00;8.65;;;34.00;37.60;;;;;;5012575;28;20022;-77
2022/08/14 06:44:15;;;;;;;7.60;6.90;;;34.50;36.70;;;;;;5012519;28;20084;-77
2022/08/14 06:46:40;;;;;;;8.88;8.10;;;35.20;36.10;;;;;;5012538;28;20065;-75
2022/08/14 06:49:06;;;;;;;9.40;8.57;;;34.80;36.30;;;;;;5012244;28;20076;-77
2022/08/14 06:51:34;;;;;;;8.25;7.55;;;35.30;35.40;;;;;;5012506;28;20022;-77
2022/08/14 06:54:00;;;;;;;9.50;7.32;;;35.00;35.60;;;;;;5012442;28;20052;-77
2022/08/14 06:56:25;;;;;;;9.40;8.38;;;34.90;36.40;;;;;;5012383;28;20066;-77
2022/08/14 06:58:51;;;;;;;8.65;7.75;;;35.40;35.20;;;;;;5010751;28;20025;-78
2022/08/14 07:06:44;;;;;;;8.45;7.38;;;36.10;34.30;;;;;;5012240;28;20032;-77
2022/08/14 07:09:10;;;;;;;8.95;8.15;;;35.00;36.30;;;;;;5012328;28;20026;-76
2022/08/14 07:11:36;;;;;;;7.70;6.90;;;35.20;35.70;;;;;;5011561;28;20022;-77
2022/08/14 07:14:02;;;;;;;8.63;7.43;;;35.30;36.00;;;;;;5011248;28;20026;-78
2022/08/14 07:16:29;;;;;;;9.13;8.20;;;35.80;35.00;;;;;;5012078;28;20040;-77
2022/08/14 07:18:55;;;;;;;9.82;8.93;;;35.30;35.50;;;;;;5012210;28;20036;-77
2022/08/14 07:21:20;;;;;;;8.75;7.88;;;32.60;40.70;;;;;;5012311;28;20536;-78
2022/08/14 07:23:46;;;;;;;11.18;10.07;;;32.70;41.30;;;;;;5012303;28;20082;-77
2022/08/14 07:26:13;;;;;;;9.18;7.40;;;32.80;40.70;;;;;;5012055;28;20495;-77
2022/08/14 07:28:39;;;;;;;7.55;6.85;;;32.70;41.30;;;;;;5010832;28;20022;-77
2022/08/14 07:31:11;;;;;;;9.27;8.38;;;33.60;39.50;;;;;;5012088;28;20428;-78
2022/08/14 07:33:44;;;;;;;9.18;8.27;;;32.90;40.10;;;;;;5012869;28;20096;-77
2022/08/14 07:36:12;;;;;;;8.48;7.68;;;32.10;42.00;;;;;;5013182;28;20026;-78
2022/08/14 07:43:36;;;;;;;8.15;7.35;;;33.10;40.20;;;;;;4982095;28;20061;-76
2022/08/14 07:46:11;;;;;;;9.75;8.10;;;33.30;39.80;;;;;;4991126;28;20040;-75
2022/08/14 07:49:27;;;;;;;11.43;8.90;;;32.90;40.60;;;;;;4991502;28;20505;-74
2022/08/14 07:52:01;;;;;;;9.20;8.30;;;31.90;42.50;;;;;;4980526;28;20037;-75
2022/08/14 07:55:18;;;;;;;;;;;;;;;;;;;;;
2022/08/14 07:58:14;;;;;;;9.98;8.80;;;30.80;44.90;;;;;;5011379;28;20041;-74
2022/08/14 08:01:05;;;;;;;13.80;8.43;;;29.50;47.70;;;;;;5031458;28;20026;-76
2022/08/14 08:04:27;;;;;;;11.00;9.88;;;29.00;49.30;;;;;;4993691;28;20107;-75
2022/08/14 08:14:36;;;;;;;12.52;8.48;;;31.20;44.70;;;;;;4982851;28;20078;-76
2022/08/14 08:17:52;;;;;;;8.98;8.07;;;32.10;43.00;;;;;;4912674;29;20036;-75
2022/08/14 08:21:34;;;;;;;9.50;8.60;;;33.30;41.00;;;;;;4879300;29;20515;-75
2022/08/14 08:24:00;;;;;;;10.25;9.23;;;31.80;43.80;;;;;;4972810;22;20209;-76
2022/08/14 08:26:29;;;;;;;10.02;8.32;;;30.60;46.10;;;;;;5011459;28;20108;-77
2022/08/14 08:28:56;;;;;;;35.55;28.38;;;29.90;48.40;;;;;;5013558;28;20018;-77
2022/08/14 08:31:22;;;;;;;12.95;9.52;;;30.40;47.50;;;;;;5015261;28;20097;-77
2022/08/14 08:33:51;;;;;;;10.27;9.27;;;30.10;47.90;;;;;;5014995;28;20053;-77
2022/08/14 08:36:18;;;;;;;10.30;9.30;;;29.80;48.60;;;;;;5015253;28;20037;-78
2022/08/14 08:38:48;;;;;;;11.23;10.02;;;29.90;48.60;;;;;;5014905;28;20443;-77
2022/08/14 08:41:14;;;;;;;12.73;9.55;;;30.20;47.60;;;;;;5013506;28;20026;-77
2022/08/14 08:43:40;;;;;;;9.45;8.02;;;30.10;47.70;;;;;;5014826;28;20033;-77
2022/08/14 08:46:14;;;;;;;10.18;9.20;;;30.00;48.50;;;;;;5013647;28;20057;-76
2022/08/14 08:48:45;;;;;;;10.20;9.20;;;29.90;48.50;;;;;;5014560;28;20472;-77
2022/08/14 08:51:21;;;;;;;;;;;30.00;48.40;;;;;;5015268;28;20038;-78
2022/08/14 08:53:55;;;;;;;11.30;9.55;;;29.90;48.40;;;;;;5013714;28;19909;-78
2022/08/14 08:56:45;;;;;;;10.10;8.63;;;29.70;48.80;;;;;;5014933;28;20476;-77
2022/08/14 08:59:22;;;;;;;10.63;9.52;;;29.90;48.40;;;;;;5013097;28;20036;-78
2022/08/14 09:01:54;;;;;;;11.05;9.60;;;29.90;48.60;;;;;;5013244;28;20075;-78
2022/08/14 09:04:20;;;;;;;11.20;9.05;;;29.60;49.00;;;;;;5014350;28;20492;-78
2022/08/14 09:06:47;;;;;;;8.93;7.95;;;29.50;49.00;;;;;;5014487;28;20042;-77
2022/08/14 09:09:50;;;;;;;9.85;7.63;;;29.90;48.50;;;;;;5014333;28;20041;-77
2022/08/14 09:12:33;;;;;;;9.73;7.90;;;30.40;46.90;;;;;;5015553;28;20068;-79
2022/08/14 09:15:02;;;;;;;12.18;7.60;;;30.80;46.40;;;;;;5013217;28;20568;-77
2022/08/14 09:17:28;;;;;;;10.52;7.72;;;31.60;44.80;;;;;;5014343;28;20080;-79
2022/08/14 09:19:54;;;;;;;11.23;7.28;;;32.20;42.20;;;;;;5014533;28;20064;-80
2022/08/14 09:22:22;;;;;;;8.48;6.88;;;32.00;42.60;;;;;;5014608;28;20076;-77
2022/08/14 09:24:48;;;;;;;8.63;6.97;;;32.00;42.50;;;;;;5012624;28;20030;-77
2022/08/14 09:27:13;;;;;;;7.68;6.45;;;32.20;41.20;;;;;;5014152;28;20024;-78
2022/08/14 09:29:42;;;;;;;7.57;6.72;;;32.30;41.40;;;;;;5014197;28;20036;-76
2022/08/14 09:32:10;;;;;;;7.22;6.53;;;32.50;40.60;;;;;;5013070;28;20539;-78
2022/08/14 09:35:07;;;;;;;8.23;6.60;;;32.70;40.30;;;;;;5014055;28;20041;-77
2022/08/14 09:38:09;;;;;;;8.85;6.78;;;32.20;41.10;;;;;;5012672;28;20183;-78
2022/08/14 09:41:01;;;;;;;7.20;6.50;;;31.80;41.70;;;;;;5014040;28;20030;-76
2022/08/14 09:43:50;;;;;;;8.30;5.93;;;32.20;41.40;;;;;;5013975;28;20025;-77
2022/08/14 09:46:16;;;;;;;6.72;5.60;;;32.10;39.40;;;;;;5013984;28;20030;-77
2022/08/14 09:48:42;;;;;;;9.00;6.18;;;32.50;39.50;;;;;;5014159;28;20502;-77
2022/08/14 09:51:19;;;;;;;8.32;6.68;;;31.50;40.80;;;;;;5014871;28;20061;-77
2022/08/14 09:53:58;;;;;;;8.02;6.13;;;31.00;42.20;;;;;;5015197;28;20018;-76
2022/08/14 09:56:24;;;;;;;7.97;5.80;;;30.70;43.30;;;;;;5014041;28;20031;-76
2022/08/14 09:58:50;;;;;;;6.78;6.18;;;31.00;42.80;;;;;;5012237;28;20109;-78
2022/08/14 10:01:18;;;;;;;8.20;6.18;;;31.50;41.90;;;;;;5013588;28;20343;-78
2022/08/14 10:03:54;;;;;;;7.30;6.60;;;31.90;41.30;;;;;;5013545;28;20707;-76
2022/08/14 10:06:24;;;;;;;7.65;5.75;;;31.90;40.90;;;;;;5013376;28;20033;-74
2022/08/14 10:09:00;;;;;;;7.72;6.00;;;30.70;42.00;;;;;;5013217;28;20029;-76
2022/08/14 10:11:30;;;;;;;8.55;5.80;;;29.90;44.30;;;;;;5012141;28;20060;-76
2022/08/14 10:14:15;;;;;;;6.22;5.18;;;29.70;43.80;;;;;;5013216;28;20025;-77
2022/08/14 10:16:43;;;;;;;9.48;5.53;;;29.90;43.20;;;;;;5013291;28;20052;-77
2022/08/14 10:19:13;;;;;;;6.18;5.20;;;29.70;43.60;;;;;;5011966;28;20026;-78
2022/08/14 10:21:45;;;;;;;6.10;5.35;;;29.90;42.80;;;;;;5013327;28;20017;-76
2022/08/14 10:24:22;;;;;;;5.85;5.00;;;29.80;43.20;;;;;;5013250;28;20053;-78
2022/08/14 10:26:59;;;;;;;6.25;5.18;;;29.60;43.30;;;;;;5011917;28;20140;-77
2022/08/14 10:29:37;;;;;;;5.78;4.50;;;29.60;43.30;;;;;;5013061;28;20018;-76
2022/08/14 10:32:04;;;;;;;6.55;4.68;;;29.30;42.90;;;;;;5013062;28;20018;-76
2022/08/14 10:34:35;;;;;;;7.13;5.03;;;29.00;43.70;;;;;;5012968;28;20022;-78
2022/08/14 10:37:06;;;;;;;8.65;5.60;;;28.90;44.30;;;;;;5013144;28;20018;-75
2022/08/14 10:39:34;;;;;;;9.20;5.60;;;28.80;43.50;;;;;;5011775;28;20054;-77
2022/08/14 10:42:10;;;;;;;7.72;4.82;;;28.90;43.60;;;;;;5012871;28;20029;-76
2022/08/14 10:44:38;;;;;;;6.65;4.47;;;29.00;42.90;;;;;;5013101;28;20032;-76
2022/08/14 10:47:09;;;;;;;7.32;4.57;;;29.20;42.40;;;;;;5011476;28;20033;-76
2022/08/14 10:49:58;;;;;;;18.42;4.82;;;29.20;41.80;;;;;;5012844;28;20018;-77
2022/08/14 10:52:31;;;;;;;7.63;5.63;;;29.30;42.40;;;;;;5012768;28;20034;-77
2022/08/14 10:55:12;;;;;;;9.77;5.43;;;29.20;43.90;;;;;;5013198;28;20026;-76
2022/08/14 10:57:58;;;;;;;6.07;4.93;;;29.30;43.00;;;;;;5012943;28;20026;-77
2022/08/14 11:00:27;;;;;;;5.70;5.20;;;29.20;43.10;;;;;;5012892;28;20097;-77
2022/08/14 11:03:02;;;;;;;6.82;4.90;;;29.50;42.90;;;;;;5012659;28;20030;-78
2022/08/14 11:05:48;;;;;;;9.18;4.88;;;29.50;42.60;;;;;;5013959;28;20139;-78
2022/08/14 11:08:18;;;;;;;9.80;5.30;;;29.40;42.40;;;;;;5014710;28;20034;-78
2022/08/14 11:10:54;;;;;;;6.10;4.30;;;29.40;42.30;;;;;;5015177;28;20018;-78
2022/08/14 11:13:23;;;;;;;4.72;4.30;;;29.40;41.80;;;;;;5013555;28;20399;-77
2022/08/14 11:15:50;;;;;;;10.05;4.50;;;28.90;43.00;;;;;;5014121;28;20079;-78
2022/08/14 11:18:16;;;;;;;9.82;4.72;;;28.90;43.40;;;;;;5013189;28;20036;-77
2022/08/14 11:20:58;;;;;;;9.50;5.00;;;29.00;43.00;;;;;;5013266;28;20038;-77
2022/08/14 11:23:32;;;;;;;6.07;4.65;;;28.90;42.80;;;;;;5013445;28;20038;-77
2022/08/14 11:26:00;;;;;;;6.65;4.53;;;29.00;43.00;;;;;;5013904;28;20454;-77
2022/08/14 11:28:40;;;;;;;8.85;4.50;;;29.00;42.50;;;;;;5011441;28;20511;-79
2022/08/14 11:31:10;;;;;;;9.07;3.63;;;28.90;42.10;;;;;;5013219;28;20029;-77
2022/08/14 11:33:37;;;;;;;8.52;3.90;;;28.90;41.10;;;;;;5013196;28;20264;-77
2022/08/14 11:36:05;;;;;;;9.48;4.13;;;28.90;40.70;;;;;;5013351;28;20052;-77
2022/08/14 11:38:45;;;;;;;8.05;4.13;;;29.10;40.70;;;;;;5012768;28;20033;-76
2022/08/14 11:41:12;;;;;;;7.88;4.30;;;29.40;40.30;;;;;;5012658;28;20032;-77
2022/08/14 11:43:44;;;;;;;9.15;4.43;;;29.80;39.50;;;;;;5012239;28;20030;-78
2022/08/14 11:46:14;;;;;;;6.22;4.65;;;29.70;39.90;;;;;;5013299;28;20392;-78
2022/08/14 11:48:51;;;;;;;4.70;4.30;;;29.70;40.00;;;;;;5013208;28;20029;-73
2022/08/14 11:51:24;;;;;;;5.63;4.75;;;29.90;39.40;;;;;;5013875;28;20107;-74
2022/08/14 11:54:00;;;;;;;8.02;4.63;;;30.00;40.10;;;;;;5013746;28;20024;-74
2022/08/14 11:56:51;;;;;;;8.15;4.88;;;29.90;40.20;;;;;;5014241;28;20552;-75
2022/08/14 11:59:18;;;;;;;5.35;4.55;;;29.80;40.70;;;;;;5012665;28;20614;-75
2022/08/14 12:01:47;;;;;;;6.32;4.50;;;29.90;40.20;;;;;;5014230;28;20040;-75
2022/08/14 12:04:18;;;;;;;6.60;4.38;;;29.90;39.60;;;;;;5017634;28;20487;-74
2022/08/14 12:06:51;;;;;;;5.72;4.07;;;29.80;39.70;;;;;;5017354;28;20030;-74
2022/08/14 12:09:37;;;;;;;10.48;4.55;;;29.70;39.70;;;;;;5017606;28;20064;-74
2022/08/14 12:12:22;;;;;;;16.02;5.22;;;29.40;40.90;;;;;;5018658;28;20026;-76
2022/08/14 12:14:56;;;;;;;22.10;6.90;;;29.30;42.80;;;;;;5017116;28;20041;-74
2022/08/14 12:17:23;;;;;;;8.23;4.70;;;29.10;45.70;;;;;;5016590;28;20026;-73
2022/08/14 12:19:58;;;;;;;13.70;5.72;;;28.50;49.90;;;;;;5015245;28;20127;-75
2022/08/14 12:22:35;;;;;;;8.00;5.32;;;27.50;53.90;;;;;;5014982;28;20057;-74
2022/08/14 12:25:04;;;;;;;6.47;4.72;;;26.90;54.00;;;;;;5014167;28;20034;-74
2022/08/14 12:27:42;;;;;;;7.97;4.38;;;26.90;50.40;;;;;;5015131;28;20551;-74
2022/08/14 12:30:12;;;;;;;7.93;5.50;;;27.30;49.20;;;;;;5016388;28;20026;-74
2022/08/14 12:32:45;;;;;;;12.13;6.20;;;27.90;48.40;;;;;;5015994;28;20036;-76
2022/08/14 12:35:11;;;;;;;7.75;5.50;;;28.20;48.00;;;;;;5015981;28;20032;-75
2022/08/14 12:37:37;;;;;;;5.85;5.25;;;28.40;47.20;;;;;;5015673;28;20052;-73
2022/08/14 12:40:11;;;;;;;6.88;5.07;;;28.80;46.30;;;;;;5016020;28;20400;-74
2022/08/14 12:42:37;;;;;;;5.95;5.32;;;28.90;44.30;;;;;;5016016;28;20026;-75
2022/08/14 12:45:04;;;;;;;7.13;5.00;;;28.90;44.90;;;;;;5015762;28;20026;-75
2022/08/14 12:47:30;;;;;;;5.78;5.28;;;28.90;45.10;;;;;;5015452;28;20439;-75
2022/08/14 12:49:57;;;;;;;6.00;5.47;;;28.80;43.80;;;;;;5015656;28;20065;-75
2022/08/14 12:52:43;;;;;;;8.02;5.07;;;29.10;43.60;;;;;;5015830;28;20109;-74
2022/08/14 12:55:14;;;;;;;6.85;5.20;;;29.20;44.10;;;;;;5015332;28;20022;-73
2022/08/14 12:57:41;;;;;;;9.35;5.28;;;29.30;43.10;;;;;;5014903;28;20025;-75
2022/08/14 13:00:14;;;;;;;5.95;5.20;;;29.50;42.90;;;;;;5015644;28;20037;-74
2022/08/14 13:02:51;;;;;;;8.27;5.35;;;29.80;42.90;;;;;;5015241;28;20034;-74
2022/08/14 13:05:23;;;;;;;6.57;4.82;;;30.20;42.00;;;;;;5014775;28;20034;-74
2022/08/14 13:07:50;;;;;;;6.50;4.60;;;30.20;42.80;;;;;;5013566;28;20495;-75
2022/08/14 13:10:20;;;;;;;9.48;5.10;;;30.40;42.50;;;;;;5014877;28;20018;-74
2022/08/14 13:12:47;;;;;;;6.80;5.13;;;30.40;42.10;;;;;;5015340;28;20022;-74
2022/08/14 13:15:14;;;;;;;7.35;4.43;;;30.40;42.10;;;;;;5015860;28;20105;-75
2022/08/14 13:17:50;;;;;;;8.02;4.97;;;30.50;41.90;;;;;;5016248;28;20037;-75
2022/08/14 13:20:18;;;;;;;5.60;4.70;;;30.30;42.30;;;;;;5017313;28;20030;-75
2022/08/14 13:22:44;;;;;;;5.82;5.28;;;30.20;42.40;;;;;;5016595;28;20053;-75
2022/08/14 13:25:23;;;;;;;5.65;4.97;;;30.20;42.50;;;;;;5016527;28;20531;-75
2022/08/14 13:27:53;;;;;;;7.43;5.45;;;30.20;42.90;;;;;;5016458;28;20026;-74